Statia Express — V7TT3 — position and weather

sailwx.info

Track history (hours):
 
Tides and Currents Weather Stations Pressure Air Temp Water Temp Dewpoint Dewpoint Depression Visibility Wind Speed Wind Dir Waves Ship Positions

Statia Express

Last reported at 2014-Nov-24 20:08 UTC. Time now 2014-Nov-26 23:04 UTC.
Position N 17°41' W 063°15'.

Length 28 m; draft 4.1 m.

Type: Tug. MMSI: 538003879.

Date/timePositionNaut miles runAvg speedWind from/ knotsBaromVisibWave heightAir tempDewpointWater temp
2014-Nov-24 20:08N 17°41' W 063°15'  
2014-Nov-17 06:07N 17°47' W 063°05'13 6.4
2014-Nov-17 04:04N 17°60' W 063°06'3 2.1
2014-Nov-17 02:30N 18°01' W 063°03'0 0.0
2014-Nov-17 01:28N 18°01' W 063°03'0 0.0
2014-Nov-16 23:06N 18°01' W 063°03'1 0.9
2014-Nov-16 22:30N 18°01' W 063°03'0 0.0
2014-Nov-16 21:12N 18°01' W 063°03'0 0.0
2014-Nov-16 20:23N 18°01' W 063°03'0 0.0
2014-Nov-16 19:08N 18°01' W 063°03'0 0.0
2014-Nov-16 17:30N 18°01' W 063°03'0 0.0
2014-Nov-16 16:24N 18°01' W 063°03'0 0.0
2014-Nov-16 15:25N 18°01' W 063°03'0 0.0
2014-Nov-16 14:31N 18°01' W 063°03'0 0.0
2014-Nov-16 12:13N 18°01' W 063°03'0 0.0
2014-Nov-16 11:33N 18°01' W 063°03'0 0.0
2014-Nov-16 10:33N 18°01' W 063°03'0 0.0
2014-Nov-16 09:24N 18°01' W 063°03'0 0.0
2014-Nov-16 08:22N 18°01' W 063°03'0 0.0
2014-Nov-16 05:33N 18°01' W 063°03'0 0.1
2014-Nov-16 02:26N 18°01' W 063°03'0 0.5
2014-Nov-16 01:32N 18°01' W 063°03'0 0.0
2014-Nov-16 00:26N 18°01' W 063°03'1 0.2
2014-Nov-15 21:23N 18°00' W 063°03'0 0.3
2014-Nov-15 20:24N 18°01' W 063°03'0 0.0
2014-Nov-15 19:18N 18°01' W 063°03'0 0.0
2014-Nov-15 17:33N 18°01' W 063°03'0 0.1
2014-Nov-15 16:29N 18°01' W 063°03'0 0.0
2014-Nov-15 15:27N 18°01' W 063°03'0 0.0
2014-Nov-15 14:09N 18°01' W 063°03'0 0.0
2014-Nov-15 13:09N 18°01' W 063°03'0 0.1
2014-Nov-15 09:25N 18°01' W 063°03'0 0.0
2014-Nov-15 08:30N 18°01' W 063°03'0 0.4
2014-Nov-15 07:33N 18°00' W 063°03'0 0.3
2014-Nov-15 06:26N 18°01' W 063°03'0 0.0
2014-Nov-15 05:21N 18°01' W 063°03'0 0.0
2014-Nov-15 04:22N 18°01' W 063°03'0 0.0
2014-Nov-15 03:33N 18°01' W 063°03'0 0.0
2014-Nov-15 00:04N 18°01' W 063°03'0 0.0
2014-Nov-14 22:26N 18°01' W 063°03'0 0.0
2014-Nov-14 21:26N 18°01' W 063°03'0 0.5
2014-Nov-14 20:30N 18°01' W 063°03'  
Track history (hours):
 
Tides and Currents Weather Stations Pressure Air Temp Water Temp Dewpoint Dewpoint Depression Visibility Wind Speed Wind Dir Waves Ship Positions

Statia Express

Last reported at 2014-Nov-24 20:08 UTC. Time now 2014-Nov-26 23:04 UTC.
Position N 17°41' W 063°15'.

Length 28 m; draft 4.1 m.

Type: Tug. MMSI: 538003879.

Date/timePositionNaut miles runAvg speedWind from/ knotsBaromVisibWave heightAir tempDewpointWater temp
2014-Nov-24 20:08N 17°41' W 063°15'  
2014-Nov-17 06:07N 17°47' W 063°05'13 6.4
2014-Nov-17 04:04N 17°60' W 063°06'3 2.1
2014-Nov-17 02:30N 18°01' W 063°03'0 0.0
2014-Nov-17 01:28N 18°01' W 063°03'0 0.0
2014-Nov-16 23:06N 18°01' W 063°03'1 0.9
2014-Nov-16 22:30N 18°01' W 063°03'0 0.0
2014-Nov-16 21:12N 18°01' W 063°03'0 0.0
2014-Nov-16 20:23N 18°01' W 063°03'0 0.0
2014-Nov-16 19:08N 18°01' W 063°03'0 0.0
2014-Nov-16 17:30N 18°01' W 063°03'0 0.0
2014-Nov-16 16:24N 18°01' W 063°03'0 0.0
2014-Nov-16 15:25N 18°01' W 063°03'0 0.0
2014-Nov-16 14:31N 18°01' W 063°03'0 0.0
2014-Nov-16 12:13N 18°01' W 063°03'0 0.0
2014-Nov-16 11:33N 18°01' W 063°03'0 0.0
2014-Nov-16 10:33N 18°01' W 063°03'0 0.0
2014-Nov-16 09:24N 18°01' W 063°03'0 0.0
2014-Nov-16 08:22N 18°01' W 063°03'0 0.0
2014-Nov-16 05:33N 18°01' W 063°03'0 0.1
2014-Nov-16 02:26N 18°01' W 063°03'0 0.5
2014-Nov-16 01:32N 18°01' W 063°03'0 0.0
2014-Nov-16 00:26N 18°01' W 063°03'1 0.2
2014-Nov-15 21:23N 18°00' W 063°03'0 0.3
2014-Nov-15 20:24N 18°01' W 063°03'0 0.0
2014-Nov-15 19:18N 18°01' W 063°03'0 0.0
2014-Nov-15 17:33N 18°01' W 063°03'0 0.1
2014-Nov-15 16:29N 18°01' W 063°03'0 0.0
2014-Nov-15 15:27N 18°01' W 063°03'0 0.0
2014-Nov-15 14:09N 18°01' W 063°03'0 0.0
2014-Nov-15 13:09N 18°01' W 063°03'0 0.1
2014-Nov-15 09:25N 18°01' W 063°03'0 0.0
2014-Nov-15 08:30N 18°01' W 063°03'0 0.4
2014-Nov-15 07:33N 18°00' W 063°03'0 0.3
2014-Nov-15 06:26N 18°01' W 063°03'0 0.0
2014-Nov-15 05:21N 18°01' W 063°03'0 0.0
2014-Nov-15 04:22N 18°01' W 063°03'0 0.0
2014-Nov-15 03:33N 18°01' W 063°03'0 0.0
2014-Nov-15 00:04N 18°01' W 063°03'0 0.0
2014-Nov-14 22:26N 18°01' W 063°03'0 0.0
2014-Nov-14 21:26N 18°01' W 063°03'0 0.5
2014-Nov-14 20:30N 18°01' W 063°03'  

Dump ship's entire track history